createdAt,value
2022-10-11T00:01:27.985Z,16.41
2022-10-11T00:03:55.061Z,16.41
2022-10-11T00:06:21.841Z,16.42
2022-10-11T00:08:48.645Z,16.42
2022-10-11T00:11:15.757Z,16.41
2022-10-11T00:13:42.537Z,16.41
2022-10-11T00:16:10.580Z,16.41
2022-10-11T00:18:37.917Z,16.42
2022-10-11T00:21:06.689Z,16.40
2022-10-11T00:23:33.477Z,16.40
2022-10-11T00:26:01.481Z,16.40
2022-10-11T00:28:28.673Z,16.39
2022-10-11T00:30:55.481Z,16.39
2022-10-11T00:33:22.677Z,16.38
2022-10-11T00:35:49.461Z,16.38
2022-10-11T00:38:16.497Z,16.39
2022-10-11T00:40:43.861Z,16.37
2022-10-11T00:43:17.798Z,16.35
2022-10-11T00:45:57.124Z,16.35
2022-10-11T00:48:37.605Z,16.35
2022-10-11T00:51:07.267Z,16.31
2022-10-11T00:53:34.515Z,16.29
2022-10-11T00:56:05.186Z,16.27
2022-10-11T00:58:34.009Z,16.28
2022-10-11T01:01:00.958Z,16.31
2022-10-11T01:03:28.056Z,16.30
2022-10-11T01:05:57.804Z,16.28
2022-10-11T01:08:24.675Z,16.28
2022-10-11T01:10:51.934Z,16.26
2022-10-11T01:13:28.576Z,16.24
2022-10-11T01:16:14.315Z,16.23
2022-10-11T01:18:48.975Z,16.21
2022-10-11T01:21:43.760Z,16.19
2022-10-11T01:24:38.212Z,16.17
2022-10-11T01:27:26.627Z,16.13
2022-10-11T01:30:02.549Z,16.16
2022-10-11T01:32:34.815Z,16.12
2022-10-11T01:35:14.443Z,16.09
2022-10-11T01:37:43.959Z,16.08
2022-10-11T01:40:17.180Z,16.09
2022-10-11T01:42:44.207Z,16.08
2022-10-11T01:45:15.808Z,16.07
2022-10-11T01:47:42.678Z,16.06
2022-10-11T01:50:31.568Z,16.04
2022-10-11T01:52:58.403Z,16.02
2022-10-11T01:55:30.747Z,16.01
2022-10-11T01:58:03.687Z,15.98
2022-10-11T02:00:52.357Z,15.97
2022-10-11T02:03:41.025Z,15.96
2022-10-11T02:06:21.387Z,15.95
2022-10-11T02:08:51.212Z,15.94
2022-10-11T02:11:27.877Z,15.92
2022-10-11T02:13:57.823Z,15.90
2022-10-11T02:16:28.440Z,15.87
2022-10-11T02:18:55.184Z,15.86
2022-10-11T02:21:22.386Z,15.87
2022-10-11T02:23:59.596Z,15.84
2022-10-11T02:26:28.300Z,15.80
2022-10-11T02:28:56.753Z,15.80
2022-10-11T02:31:23.584Z,15.80
2022-10-11T02:34:07.563Z,15.76
2022-10-11T02:36:46.379Z,15.75
2022-10-11T02:39:17.962Z,15.75
2022-10-11T02:41:44.991Z,15.74
2022-10-11T02:44:21.491Z,15.69
2022-10-11T02:46:48.550Z,15.66
2022-10-11T02:49:15.308Z,15.65
2022-10-11T02:51:42.094Z,15.66
2022-10-11T02:54:09.116Z,15.67
2022-10-11T02:56:35.914Z,15.67
2022-10-11T02:59:02.710Z,15.67
2022-10-11T03:01:29.793Z,15.64
2022-10-11T03:03:56.662Z,15.64
2022-10-11T03:06:23.406Z,15.63
2022-10-11T03:08:50.423Z,15.63
2022-10-11T03:11:17.420Z,15.61
2022-10-11T03:13:44.182Z,15.61
2022-10-11T03:16:11.495Z,15.60
2022-10-11T03:18:38.361Z,15.58
2022-10-11T03:21:05.180Z,15.58
2022-10-11T03:23:32.210Z,15.57
2022-10-11T03:25:59.002Z,15.57
2022-10-11T03:28:25.890Z,15.54
2022-10-11T03:30:53.037Z,15.55
2022-10-11T03:33:19.822Z,15.53
2022-10-11T03:35:47.190Z,15.54
2022-10-11T03:38:15.436Z,15.53
2022-10-11T03:40:42.807Z,15.52
2022-10-11T03:43:10.090Z,15.52
2022-10-11T03:45:37.166Z,15.52
2022-10-11T03:48:04.234Z,15.50
2022-10-11T03:50:31.370Z,15.49
2022-10-11T03:52:58.373Z,15.48
2022-10-11T03:55:25.175Z,15.51
2022-10-11T03:57:51.969Z,15.47
2022-10-11T04:00:19.062Z,15.50
2022-10-11T04:02:45.826Z,15.48
2022-10-11T04:05:12.730Z,15.47
2022-10-11T04:07:40.225Z,15.48
2022-10-11T04:10:07.466Z,15.47
2022-10-11T04:12:34.301Z,15.46
2022-10-11T04:15:01.309Z,15.46
2022-10-11T04:17:28.149Z,15.46
2022-10-11T04:19:54.893Z,15.44
2022-10-11T04:22:21.882Z,15.45
2022-10-11T04:24:48.636Z,15.45
2022-10-11T04:27:15.413Z,15.43
2022-10-11T04:29:42.382Z,15.45
2022-10-11T04:32:09.117Z,15.45
2022-10-11T04:34:35.940Z,15.41
2022-10-11T04:37:02.965Z,15.40
2022-10-11T04:39:29.733Z,15.41
2022-10-11T04:41:56.533Z,15.42
2022-10-11T04:44:23.745Z,15.40
2022-10-11T04:46:50.550Z,15.38
2022-10-11T04:49:17.328Z,15.42
2022-10-11T04:51:44.336Z,15.44
2022-10-11T04:54:11.096Z,15.42
2022-10-11T04:56:37.889Z,15.41
2022-10-11T04:59:04.932Z,15.38
2022-10-11T05:01:31.702Z,15.36
2022-10-11T05:03:58.504Z,15.34
2022-10-11T05:06:25.604Z,15.34
2022-10-11T05:08:52.357Z,15.34
2022-10-11T05:11:19.272Z,15.36
2022-10-11T05:13:46.345Z,15.35
2022-10-11T05:16:13.744Z,15.34
2022-10-11T05:18:40.734Z,15.31
2022-10-11T05:21:09.069Z,15.31
2022-10-11T05:23:36.320Z,15.31
2022-10-11T05:26:03.680Z,15.28
2022-10-11T05:28:31.244Z,15.29
2022-10-11T05:30:58.202Z,15.30
2022-10-11T05:33:25.847Z,15.29
2022-10-11T05:35:53.016Z,15.29
2022-10-11T05:38:19.942Z,15.31
2022-10-11T05:40:46.687Z,15.30
2022-10-11T05:43:13.731Z,15.29
2022-10-11T05:45:41.454Z,15.30
2022-10-11T05:48:08.779Z,15.30
2022-10-11T05:50:36.229Z,15.31
2022-10-11T05:53:03.011Z,15.27
2022-10-11T05:55:29.819Z,15.31
2022-10-11T05:57:57.551Z,15.30
2022-10-11T06:00:24.464Z,15.31
2022-10-11T06:02:51.226Z,15.31
2022-10-11T06:05:18.255Z,15.31
2022-10-11T06:07:45.098Z,15.31
2022-10-11T06:10:12.030Z,15.30
2022-10-11T06:12:39.655Z,15.32
2022-10-11T06:15:07.487Z,15.32
2022-10-11T06:17:34.816Z,15.34
2022-10-11T06:20:01.868Z,15.33
2022-10-11T06:22:29.426Z,15.34
2022-10-11T06:24:56.274Z,15.35
2022-10-11T06:27:23.290Z,15.37
2022-10-11T06:29:50.038Z,15.37
2022-10-11T06:32:17.109Z,15.39
2022-10-11T06:34:43.882Z,15.43
2022-10-11T06:37:10.630Z,15.43
2022-10-11T06:39:37.773Z,15.44
2022-10-11T06:42:04.569Z,15.46
2022-10-11T06:44:31.365Z,15.48
2022-10-11T06:46:58.413Z,15.50
2022-10-11T06:49:25.250Z,15.48
2022-10-11T06:51:52.257Z,15.51
2022-10-11T06:54:19.698Z,15.53
2022-10-11T06:56:46.506Z,15.54
2022-10-11T06:59:13.563Z,15.56
2022-10-11T07:01:41.986Z,15.58
2022-10-11T07:04:08.945Z,15.58
2022-10-11T07:06:39.722Z,15.62
2022-10-11T07:09:07.226Z,15.63
2022-10-11T07:11:34.437Z,15.64
2022-10-11T07:14:04.292Z,15.67
2022-10-11T07:16:31.334Z,15.70
2022-10-11T07:19:00.740Z,15.69
2022-10-11T07:21:28.436Z,15.73
2022-10-11T07:23:55.484Z,15.72
2022-10-11T07:26:22.284Z,15.77
2022-10-11T07:28:49.089Z,15.85
2022-10-11T07:31:21.022Z,15.84
2022-10-11T07:33:47.864Z,15.94
2022-10-11T07:36:14.660Z,15.98
2022-10-11T07:38:42.436Z,16.02
2022-10-11T07:41:09.392Z,16.07
2022-10-11T07:43:36.717Z,16.08
2022-10-11T07:46:04.881Z,16.12
2022-10-11T07:48:32.508Z,16.14
2022-10-11T07:51:19.320Z,16.19
2022-10-11T07:53:51.012Z,16.21
2022-10-11T07:56:25.992Z,16.24
2022-10-11T07:58:58.131Z,16.27
2022-10-11T08:01:25.872Z,16.30
2022-10-11T08:03:52.783Z,16.30
2022-10-11T08:06:21.423Z,16.34
2022-10-11T08:08:48.968Z,16.37
2022-10-11T08:11:25.879Z,16.39
2022-10-11T08:13:53.071Z,16.40
2022-10-11T08:24:45.780Z,16.44
2022-10-11T08:27:12.597Z,16.47
2022-10-11T08:29:39.612Z,16.50
2022-10-11T08:32:06.439Z,16.50
2022-10-11T08:34:33.291Z,16.51
2022-10-11T08:37:00.323Z,16.50
2022-10-11T08:39:27.120Z,16.49
2022-10-11T08:42:09.130Z,16.54
2022-10-11T08:45:08.921Z,16.56
2022-10-11T08:47:43.186Z,16.58
2022-10-11T08:50:21.303Z,16.59
2022-10-11T08:52:53.379Z,16.61
2022-10-11T08:55:30.087Z,16.60
2022-10-11T08:57:57.384Z,16.64
2022-10-11T09:00:24.670Z,16.66
2022-10-11T09:03:36.970Z,16.68
2022-10-11T09:06:35.978Z,16.69
2022-10-11T09:09:40.360Z,16.73
2022-10-11T09:12:11.038Z,16.74
2022-10-11T09:14:45.991Z,16.75
2022-10-11T09:17:34.864Z,16.78
2022-10-11T09:20:23.382Z,16.79
2022-10-11T09:23:27.425Z,16.79
2022-10-11T09:26:03.780Z,16.82
2022-10-11T09:28:34.012Z,16.83
2022-10-11T09:31:00.810Z,16.82
2022-10-11T09:33:54.789Z,16.85
2022-10-11T09:36:49.633Z,16.89
2022-10-11T09:39:33.260Z,16.90
2022-10-11T09:42:05.512Z,16.91
2022-10-11T09:44:37.450Z,16.93
2022-10-11T09:47:04.816Z,16.95
2022-10-11T09:49:43.189Z,16.96
2022-10-11T09:52:18.857Z,16.99
2022-10-11T09:54:47.711Z,17.01
2022-10-11T09:57:27.454Z,17.01
2022-10-11T10:00:00.258Z,17.05
2022-10-11T10:02:29.159Z,17.06
2022-10-11T10:05:00.786Z,17.06
2022-10-11T10:07:28.603Z,17.10
2022-10-11T10:09:55.768Z,17.12
2022-10-11T10:12:24.497Z,17.15
2022-10-11T10:15:08.623Z,17.17
2022-10-11T10:17:35.872Z,17.19
2022-10-11T10:20:05.615Z,17.21
2022-10-11T10:22:34.428Z,17.24
2022-10-11T10:25:07.900Z,17.25
2022-10-11T10:27:34.719Z,17.31
2022-10-11T10:30:07.680Z,17.34
2022-10-11T10:32:36.376Z,17.34
2022-10-11T10:35:07.462Z,17.36
2022-10-11T10:37:46.080Z,17.40
2022-10-11T10:40:25.587Z,17.41
2022-10-11T10:42:52.403Z,17.45
2022-10-11T10:45:21.782Z,17.50
2022-10-11T10:48:24.727Z,17.53
2022-10-11T10:51:01.327Z,17.56
2022-10-11T10:54:25.023Z,17.53
2022-10-11T10:57:03.103Z,17.58
2022-10-11T10:59:30.427Z,17.61
2022-10-11T11:02:15.989Z,17.70
2022-10-11T11:05:01.717Z,17.73
2022-10-11T11:07:37.871Z,17.78
2022-10-11T11:10:07.319Z,17.82
2022-10-11T11:13:00.987Z,17.85
2022-10-11T11:15:35.541Z,17.86
2022-10-11T11:18:04.647Z,17.86
2022-10-11T11:20:37.435Z,17.93
2022-10-11T11:23:31.655Z,18.00
2022-10-11T11:26:13.020Z,18.06
2022-10-11T11:29:17.614Z,18.14
2022-10-11T11:32:03.156Z,18.21
2022-10-11T11:34:34.407Z,18.22
2022-10-11T11:37:06.895Z,18.30
2022-10-11T11:39:48.469Z,18.33
2022-10-11T11:42:22.911Z,18.33
2022-10-11T11:44:50.963Z,18.39
2022-10-11T11:47:29.307Z,18.43
2022-10-11T11:50:02.133Z,18.49
2022-10-11T11:52:36.404Z,18.53
2022-10-11T11:55:23.080Z,18.59
2022-10-11T11:57:56.241Z,18.59
2022-10-11T12:00:28.013Z,18.61
2022-10-11T12:03:06.278Z,18.67
2022-10-11T12:05:34.419Z,18.75
2022-10-11T12:08:06.771Z,18.79
2022-10-11T12:10:48.847Z,18.84
2022-10-11T12:13:48.690Z,18.89
2022-10-11T12:16:16.579Z,18.97
2022-10-11T12:18:59.032Z,18.95
2022-10-11T12:21:27.647Z,18.97
2022-10-11T12:23:56.039Z,19.01
2022-10-11T12:26:28.903Z,19.05
2022-10-11T12:29:02.344Z,19.04
2022-10-11T12:31:35.923Z,19.06
2022-10-11T12:34:09.139Z,19.12
2022-10-11T12:36:46.718Z,19.17
2022-10-11T12:39:19.810Z,19.18
2022-10-11T12:41:47.314Z,19.22
2022-10-11T12:44:23.095Z,19.27
2022-10-11T12:46:57.574Z,19.31
2022-10-11T12:49:33.408Z,19.31
2022-10-11T12:52:03.823Z,19.33
2022-10-11T12:54:49.395Z,19.36
2022-10-11T12:57:39.682Z,19.34
2022-10-11T13:00:12.561Z,19.39
2022-10-11T13:02:40.403Z,19.38
2022-10-11T13:05:29.957Z,19.42
2022-10-11T13:07:58.702Z,19.39
2022-10-11T13:10:31.071Z,19.41
2022-10-11T13:12:59.718Z,19.45
2022-10-11T13:15:26.645Z,19.50
2022-10-11T13:17:58.832Z,19.53
2022-10-11T13:20:26.930Z,19.53
2022-10-11T13:22:54.897Z,19.48
2022-10-11T13:25:29.662Z,19.50
2022-10-11T13:27:57.993Z,19.46
2022-10-11T13:30:30.021Z,19.50
2022-10-11T13:32:57.742Z,19.52
2022-10-11T13:35:37.585Z,19.51
2022-10-11T13:38:08.264Z,19.53
2022-10-11T13:40:35.043Z,19.54
2022-10-11T13:43:02.147Z,19.53
2022-10-11T13:45:30.738Z,19.56
2022-10-11T13:47:57.641Z,19.59
2022-10-11T13:50:31.781Z,19.59
2022-10-11T13:53:03.716Z,19.60
2022-10-11T13:55:34.499Z,19.59
2022-10-11T13:58:03.260Z,19.60
2022-10-11T14:00:34.898Z,19.60
2022-10-11T14:03:15.656Z,19.61
2022-10-11T14:05:51.605Z,19.62
2022-10-11T14:08:31.012Z,19.64
2022-10-11T14:11:01.279Z,19.64
2022-10-11T14:13:58.752Z,19.62
2022-10-11T14:16:25.533Z,19.61
2022-10-11T14:19:12.852Z,19.62
2022-10-11T14:21:45.864Z,19.63
2022-10-11T14:24:13.361Z,19.63
2022-10-11T14:26:41.763Z,19.63
2022-10-11T14:29:27.869Z,19.62
2022-10-11T14:32:14.544Z,19.63
2022-10-11T14:34:41.669Z,19.65
2022-10-11T14:37:09.772Z,19.62
2022-10-11T14:39:36.932Z,19.62
2022-10-11T14:42:04.791Z,19.61
2022-10-11T14:44:31.900Z,19.60
2022-10-11T14:46:59.136Z,19.59
2022-10-11T14:49:28.024Z,19.57
2022-10-11T14:51:55.935Z,19.56
2022-10-11T14:54:23.792Z,19.55
2022-10-11T14:56:55.288Z,19.54
2022-10-11T14:59:23.852Z,19.53
2022-10-11T15:01:52.009Z,19.51
2022-10-11T15:04:22.850Z,19.50
2022-10-11T15:06:50.121Z,19.48
2022-10-11T15:09:17.391Z,19.46
2022-10-11T15:11:44.585Z,19.46
2022-10-11T15:14:11.392Z,19.44
2022-10-11T15:16:40.008Z,19.42
2022-10-11T15:19:09.844Z,19.40
2022-10-11T15:21:36.601Z,19.35
2022-10-11T15:24:03.533Z,19.34
2022-10-11T15:26:30.613Z,19.33
2022-10-11T15:28:57.574Z,19.30
2022-10-11T15:31:24.433Z,19.27
2022-10-11T15:33:51.794Z,19.25
2022-10-11T15:36:21.174Z,19.23
2022-10-11T15:38:48.329Z,19.20
2022-10-11T15:41:16.587Z,19.17
2022-10-11T15:43:43.793Z,19.14
2022-10-11T15:46:17.472Z,19.09
2022-10-11T15:48:44.699Z,19.07
2022-10-11T15:51:11.705Z,19.04
2022-10-11T15:53:38.516Z,19.01
2022-10-11T15:56:07.369Z,18.97
2022-10-11T15:58:36.649Z,18.93
2022-10-11T16:01:08.846Z,18.89
2022-10-11T16:03:36.407Z,18.85
2022-10-11T16:06:05.589Z,18.81
2022-10-11T16:08:33.592Z,18.77
2022-10-11T16:11:00.826Z,18.73
2022-10-11T16:13:27.639Z,18.69
2022-10-11T16:15:54.821Z,18.64
2022-10-11T16:18:22.253Z,18.61
2022-10-11T16:20:51.949Z,18.57
2022-10-11T16:23:20.062Z,18.52
2022-10-11T16:25:48.143Z,18.49
2022-10-11T16:28:15.125Z,18.44
2022-10-11T16:30:45.253Z,18.42
2022-10-11T16:33:12.299Z,18.38
2022-10-11T16:35:42.512Z,18.32
2022-10-11T16:38:09.694Z,18.28
2022-10-11T16:40:40.403Z,18.24
2022-10-11T16:43:08.054Z,18.19
2022-10-11T16:45:35.496Z,18.15
2022-10-11T16:48:02.552Z,18.12
2022-10-11T16:50:29.358Z,18.07
2022-10-11T16:52:56.421Z,18.01
2022-10-11T16:55:23.393Z,17.96
2022-10-11T16:57:50.379Z,17.93
2022-10-11T17:00:17.177Z,17.89
2022-10-11T17:02:44.273Z,17.84
2022-10-11T17:05:11.013Z,17.78
2022-10-11T17:07:38.045Z,17.73
2022-10-11T17:10:05.431Z,17.70
2022-10-11T17:12:35.397Z,17.65
2022-10-11T17:15:02.188Z,17.58
2022-10-11T17:17:29.686Z,17.54
2022-10-11T17:19:56.591Z,17.48
2022-10-11T17:22:24.124Z,17.45
2022-10-11T17:24:51.178Z,17.40
2022-10-11T17:27:18.217Z,17.35
2022-10-11T17:29:45.011Z,17.31
2022-10-11T17:32:11.835Z,17.26
2022-10-11T17:34:38.811Z,17.22
2022-10-11T17:37:06.162Z,17.17
2022-10-11T17:39:34.113Z,17.14
2022-10-11T17:42:05.046Z,17.05
2022-10-11T17:44:31.850Z,17.12
2022-10-11T17:46:59.462Z,17.13
2022-10-11T17:49:26.336Z,16.99
2022-10-11T17:51:53.317Z,16.91
2022-10-11T17:54:20.138Z,16.87
2022-10-11T17:56:46.966Z,16.79
2022-10-11T17:59:18.367Z,16.75
2022-10-11T18:01:45.273Z,16.74
2022-10-11T18:04:16.602Z,16.67
2022-10-11T18:06:45.114Z,16.62
2022-10-11T18:09:12.734Z,16.58
2022-10-11T18:11:39.770Z,16.55
2022-10-11T18:14:06.593Z,16.45
2022-10-11T18:16:33.826Z,16.45
2022-10-11T18:19:01.697Z,16.39
2022-10-11T18:21:33.943Z,16.36
2022-10-11T18:24:02.745Z,16.33
2022-10-11T18:26:30.939Z,16.26
2022-10-11T18:28:58.057Z,16.22
2022-10-11T18:31:26.606Z,16.12
2022-10-11T18:33:53.462Z,16.08
2022-10-11T18:36:22.045Z,16.00
2022-10-11T18:38:50.774Z,16.04
2022-10-11T18:41:20.093Z,15.95
2022-10-11T18:43:50.814Z,15.91
2022-10-11T18:46:18.004Z,15.94
2022-10-11T18:48:45.672Z,15.79
2022-10-11T18:51:25.732Z,15.86
2022-10-11T18:53:53.520Z,15.72
2022-10-11T18:56:21.765Z,15.71
2022-10-11T18:58:49.628Z,15.61
2022-10-11T19:01:20.306Z,15.61
2022-10-11T19:03:48.379Z,15.63
2022-10-11T19:06:17.711Z,15.53
2022-10-11T19:08:52.472Z,15.44
2022-10-11T19:11:22.751Z,15.44
2022-10-11T19:14:01.286Z,15.42
2022-10-11T19:16:29.755Z,15.36
2022-10-11T19:18:57.051Z,15.31
2022-10-11T19:21:23.795Z,15.31
2022-10-11T19:23:50.955Z,15.26
2022-10-11T19:26:27.084Z,15.20
2022-10-11T19:29:00.679Z,15.18
2022-10-11T19:31:28.156Z,15.13
2022-10-11T19:33:56.656Z,15.08
2022-10-11T19:36:23.844Z,15.05
2022-10-11T19:38:51.050Z,15.07
2022-10-11T19:41:19.188Z,14.99
2022-10-11T19:43:46.496Z,14.95
2022-10-11T19:46:37.870Z,14.94
2022-10-11T19:49:05.450Z,14.87
2022-10-11T19:51:34.861Z,14.85
2022-10-11T19:54:03.386Z,14.80
2022-10-11T19:56:31.458Z,14.74
2022-10-11T19:58:58.565Z,14.73
2022-10-11T20:01:27.202Z,14.75
2022-10-11T20:03:56.593Z,14.63
2022-10-11T20:06:23.743Z,14.56
2022-10-11T20:09:10.344Z,14.79
2022-10-11T20:11:37.692Z,14.76
2022-10-11T20:14:04.671Z,14.64
2022-10-11T20:16:31.483Z,14.57
2022-10-11T20:18:59.269Z,14.46
2022-10-11T20:21:27.481Z,14.53
2022-10-11T20:23:57.376Z,14.44
2022-10-11T20:26:24.647Z,14.42
2022-10-11T20:28:55.919Z,14.33
2022-10-11T20:31:28.030Z,14.35
2022-10-11T20:33:56.540Z,14.32
2022-10-11T20:36:23.807Z,14.26
2022-10-11T20:38:51.270Z,14.24
2022-10-11T20:41:19.980Z,14.21
2022-10-11T20:43:51.468Z,14.17
2022-10-11T20:46:19.850Z,14.09
2022-10-11T20:48:58.864Z,14.02
2022-10-11T20:51:28.936Z,14.03
2022-10-11T20:53:56.511Z,14.01
2022-10-11T20:56:23.331Z,13.98
2022-10-11T20:58:52.264Z,13.89
2022-10-11T21:01:20.721Z,13.85
2022-10-11T21:03:47.526Z,13.84
2022-10-11T21:06:14.590Z,13.80
2022-10-11T21:08:41.369Z,13.80
2022-10-11T21:11:08.827Z,13.75
2022-10-11T21:13:35.721Z,13.72
2022-10-11T21:16:04.427Z,13.71
2022-10-11T21:18:31.230Z,13.64
2022-10-11T21:20:57.990Z,13.66
2022-10-11T21:23:24.974Z,13.64
2022-10-11T21:25:51.770Z,13.60
2022-10-11T21:28:18.569Z,13.62
2022-10-11T21:30:45.623Z,13.53
2022-10-11T21:33:12.379Z,13.51
2022-10-11T21:35:40.180Z,13.49
2022-10-11T21:38:07.183Z,13.42
2022-10-11T21:40:37.863Z,13.42
2022-10-11T21:43:04.639Z,13.38
2022-10-11T21:45:31.642Z,13.34
2022-10-11T21:47:58.566Z,13.34
2022-10-11T21:50:25.574Z,13.28
2022-10-11T21:52:52.350Z,13.30
2022-10-11T21:55:19.369Z,13.25
2022-10-11T21:57:46.110Z,13.25
2022-10-11T22:00:13.486Z,13.16
2022-10-11T22:02:40.626Z,13.14
2022-10-11T22:05:07.680Z,13.14
2022-10-11T22:07:34.462Z,13.14
2022-10-11T22:10:01.602Z,13.08
2022-10-11T22:12:28.587Z,13.06
2022-10-11T22:14:55.438Z,13.03
2022-10-11T22:17:22.506Z,13.01
2022-10-11T22:19:49.282Z,12.99
2022-10-11T22:22:16.114Z,12.95
2022-10-11T22:24:43.130Z,12.95
2022-10-11T22:27:09.936Z,12.91
2022-10-11T22:29:36.761Z,12.87
2022-10-11T22:32:04.526Z,12.91
2022-10-11T22:34:32.485Z,12.88
2022-10-11T22:36:59.245Z,12.86
2022-10-11T22:39:26.294Z,12.84
2022-10-11T22:41:53.905Z,12.84
2022-10-11T22:44:20.829Z,12.80
2022-10-11T22:46:47.853Z,12.73
2022-10-11T22:49:14.649Z,12.71
2022-10-11T22:51:41.445Z,12.65
2022-10-11T22:54:08.493Z,12.62
2022-10-11T22:56:35.366Z,12.69
2022-10-11T22:59:02.143Z,12.60
2022-10-11T23:01:29.153Z,12.59
2022-10-11T23:03:56.669Z,12.56
2022-10-11T23:06:23.525Z,12.51
2022-10-11T23:08:50.537Z,12.55
2022-10-11T23:11:17.372Z,12.52
2022-10-11T23:13:44.133Z,12.49
2022-10-11T23:16:12.012Z,12.48
2022-10-11T23:18:38.903Z,12.43
2022-10-11T23:21:05.876Z,12.43
2022-10-11T23:23:33.001Z,12.40
2022-10-11T23:26:11.434Z,12.39
2022-10-11T23:28:38.546Z,12.36
2022-10-11T23:31:09.283Z,12.33
2022-10-11T23:33:36.515Z,12.32
2022-10-11T23:36:04.068Z,12.29
2022-10-11T23:38:31.033Z,12.24
2022-10-11T23:40:57.856Z,12.21
2022-10-11T23:43:24.835Z,12.22
2022-10-11T23:45:51.600Z,12.18
2022-10-11T23:48:18.368Z,12.13
2022-10-11T23:50:45.608Z,12.11
2022-10-11T23:53:13.735Z,12.05
2022-10-11T23:55:40.691Z,12.07
2022-10-11T23:58:08.187Z,12.06
